Aslo, Minnesota
Current Conditions -  °F | °C
As of 9:52 PM on Friday 31 Oct 2014 (Local Time) from KMZH Reporting Station
Clear Clear  
Wind Chill: 23°   Ceiling: Unl
Heat Index: 23°   Visibility: 10mi
Dew Point: 18°   Wind: 0mph
Humidity: 80%   Direction: NA
Pressure: 30.45"   Gusts: NA
Location:  46.2004°N, 92.675°W
Report Text: KMZH 010252Z AUTO 00000KT 10SM CLR M05/M08 A3045 RMK AO2
Loading
Personal Weather Stations






























Interactive Weather Map
Tropical Storm Tracking
New forecast layout! Learn more

10-Day Weather Forecast

Advertisements
Track Severe Weather on mobile